sensor_id;sensor_type;location;lat;lon;timestamp;P1;durP1;ratioP1;P2;durP2;ratioP2
42432;SDS011;28071;48.232;20.668;2023-08-31T00:03:41;0.93;;;0.55;;
42432;SDS011;28071;48.232;20.668;2023-08-31T00:08:41;1.23;;;0.88;;
42432;SDS011;28071;48.232;20.668;2023-08-31T00:13:42;0.90;;;0.60;;
42432;SDS011;28071;48.232;20.668;2023-08-31T00:18:42;1.40;;;0.85;;
42432;SDS011;28071;48.232;20.668;2023-08-31T00:23:45;0.40;;;0.40;;
42432;SDS011;28071;48.232;20.668;2023-08-31T00:28:45;1.10;;;0.68;;
42432;SDS011;28071;48.232;20.668;2023-08-31T00:33:45;0.82;;;0.70;;
42432;SDS011;28071;48.232;20.668;2023-08-31T00:38:46;0.40;;;0.40;;
42432;SDS011;28071;48.232;20.668;2023-08-31T00:43:46;1.45;;;0.70;;
42432;SDS011;28071;48.232;20.668;2023-08-31T00:48:47;0.73;;;0.60;;
42432;SDS011;28071;48.232;20.668;2023-08-31T00:53:47;1.38;;;0.95;;
42432;SDS011;28071;48.232;20.668;2023-08-31T00:58:48;1.40;;;1.15;;
42432;SDS011;28071;48.232;20.668;2023-08-31T01:14:23;2.38;;;0.80;;
42432;SDS011;28071;48.232;20.668;2023-08-31T01:19:30;1.40;;;1.30;;
42432;SDS011;28071;48.232;20.668;2023-08-31T01:24:44;3.80;;;1.83;;
42432;SDS011;28071;48.232;20.668;2023-08-31T01:29:45;0.80;;;0.60;;
42432;SDS011;28071;48.232;20.668;2023-08-31T01:34:46;1.88;;;1.13;;
42432;SDS011;28071;48.232;20.668;2023-08-31T01:39:47;2.75;;;1.48;;
42432;SDS011;28071;48.232;20.668;2023-08-31T01:44:52;2.20;;;1.40;;
42432;SDS011;28071;48.232;20.668;2023-08-31T01:49:55;2.47;;;1.30;;
42432;SDS011;28071;48.232;20.668;2023-08-31T01:54:56;0.80;;;0.75;;
42432;SDS011;28071;48.232;20.668;2023-08-31T01:59:57;1.05;;;0.80;;
42432;SDS011;28071;48.232;20.668;2023-08-31T02:04:57;1.17;;;0.75;;
42432;SDS011;28071;48.232;20.668;2023-08-31T02:10:01;1.23;;;0.82;;
42432;SDS011;28071;48.232;20.668;2023-08-31T02:15:05;1.55;;;1.00;;
42432;SDS011;28071;48.232;20.668;2023-08-31T02:20:06;1.50;;;1.00;;
42432;SDS011;28071;48.232;20.668;2023-08-31T02:25:08;0.98;;;0.68;;
42432;SDS011;28071;48.232;20.668;2023-08-31T02:30:09;2.03;;;0.40;;
42432;SDS011;28071;48.232;20.668;2023-08-31T02:35:09;0.30;;;0.30;;
42432;SDS011;28071;48.232;20.668;2023-08-31T02:40:10;0.52;;;0.50;;
42432;SDS011;28071;48.232;20.668;2023-08-31T02:45:12;1.13;;;1.00;;
42432;SDS011;28071;48.232;20.668;2023-08-31T02:50:12;0.75;;;0.57;;
42432;SDS011;28071;48.232;20.668;2023-08-31T02:55:13;0.52;;;0.40;;
42432;SDS011;28071;48.232;20.668;2023-08-31T03:00:13;0.55;;;0.52;;
42432;SDS011;28071;48.232;20.668;2023-08-31T03:05:15;0.93;;;0.68;;
42432;SDS011;28071;48.232;20.668;2023-08-31T03:10:16;0.75;;;0.45;;
42432;SDS011;28071;48.232;20.668;2023-08-31T03:15:16;0.57;;;0.52;;
42432;SDS011;28071;48.232;20.668;2023-08-31T03:20:17;0.50;;;0.43;;
42432;SDS011;28071;48.232;20.668;2023-08-31T03:25:17;0.77;;;0.68;;
42432;SDS011;28071;48.232;20.668;2023-08-31T03:30:18;1.92;;;0.47;;
42432;SDS011;28071;48.232;20.668;2023-08-31T03:35:18;0.68;;;0.52;;
42432;SDS011;28071;48.232;20.668;2023-08-31T03:40:19;1.23;;;0.52;;
42432;SDS011;28071;48.232;20.668;2023-08-31T03:45:19;1.35;;;0.70;;
42432;SDS011;28071;48.232;20.668;2023-08-31T03:50:20;0.60;;;0.45;;
42432;SDS011;28071;48.232;20.668;2023-08-31T03:55:20;0.98;;;0.77;;
42432;SDS011;28071;48.232;20.668;2023-08-31T04:00:21;0.77;;;0.68;;
42432;SDS011;28071;48.232;20.668;2023-08-31T04:05:21;0.77;;;0.50;;
42432;SDS011;28071;48.232;20.668;2023-08-31T04:10:22;1.08;;;0.82;;
42432;SDS011;28071;48.232;20.668;2023-08-31T04:15:23;0.68;;;0.50;;
42432;SDS011;28071;48.232;20.668;2023-08-31T04:20:24;0.60;;;0.32;;
42432;SDS011;28071;48.232;20.668;2023-08-31T04:25:24;0.50;;;0.50;;
42432;SDS011;28071;48.232;20.668;2023-08-31T04:30:25;0.82;;;0.70;;
42432;SDS011;28071;48.232;20.668;2023-08-31T04:35:26;0.63;;;0.52;;
42432;SDS011;28071;48.232;20.668;2023-08-31T04:40:27;0.88;;;0.60;;
42432;SDS011;28071;48.232;20.668;2023-08-31T04:45:29;0.80;;;0.70;;
42432;SDS011;28071;48.232;20.668;2023-08-31T04:50:30;1.60;;;0.88;;
42432;SDS011;28071;48.232;20.668;2023-08-31T04:55:31;0.93;;;0.60;;
42432;SDS011;28071;48.232;20.668;2023-08-31T05:00:31;1.58;;;0.70;;
42432;SDS011;28071;48.232;20.668;2023-08-31T05:05:32;2.28;;;1.05;;
42432;SDS011;28071;48.232;20.668;2023-08-31T05:10:32;0.90;;;0.73;;
42432;SDS011;28071;48.232;20.668;2023-08-31T05:15:33;1.90;;;0.73;;
42432;SDS011;28071;48.232;20.668;2023-08-31T05:20:34;1.52;;;0.70;;
42432;SDS011;28071;48.232;20.668;2023-08-31T05:25:35;1.33;;;0.60;;
42432;SDS011;28071;48.232;20.668;2023-08-31T05:30:35;1.27;;;0.68;;
42432;SDS011;28071;48.232;20.668;2023-08-31T05:35:36;0.80;;;0.70;;
42432;SDS011;28071;48.232;20.668;2023-08-31T05:40:36;0.77;;;0.73;;
42432;SDS011;28071;48.232;20.668;2023-08-31T05:45:37;0.70;;;0.70;;
42432;SDS011;28071;48.232;20.668;2023-08-31T05:50:37;1.83;;;1.00;;
42432;SDS011;28071;48.232;20.668;2023-08-31T05:55:38;0.80;;;0.80;;
42432;SDS011;28071;48.232;20.668;2023-08-31T06:00:38;2.08;;;0.95;;
42432;SDS011;28071;48.232;20.668;2023-08-31T06:05:38;1.13;;;0.90;;
42432;SDS011;28071;48.232;20.668;2023-08-31T06:10:39;0.80;;;0.73;;
42432;SDS011;28071;48.232;20.668;2023-08-31T06:15:39;1.33;;;0.80;;
42432;SDS011;28071;48.232;20.668;2023-08-31T06:20:40;1.90;;;0.60;;
42432;SDS011;28071;48.232;20.668;2023-08-31T06:25:40;1.45;;;0.95;;
42432;SDS011;28071;48.232;20.668;2023-08-31T06:30:41;1.48;;;0.52;;
42432;SDS011;28071;48.232;20.668;2023-08-31T06:35:47;0.55;;;0.55;;
42432;SDS011;28071;48.232;20.668;2023-08-31T06:40:51;1.05;;;0.90;;
42432;SDS011;28071;48.232;20.668;2023-08-31T06:45:58;2.10;;;1.02;;
42432;SDS011;28071;48.232;20.668;2023-08-31T06:50:59;1.67;;;0.80;;
42432;SDS011;28071;48.232;20.668;2023-08-31T06:55:59;0.80;;;0.52;;
42432;SDS011;28071;48.232;20.668;2023-08-31T07:01:00;1.38;;;0.95;;
42432;SDS011;28071;48.232;20.668;2023-08-31T07:06:01;1.27;;;0.77;;
42432;SDS011;28071;48.232;20.668;2023-08-31T07:11:02;1.83;;;0.90;;
42432;SDS011;28071;48.232;20.668;2023-08-31T07:16:03;1.35;;;1.00;;
42432;SDS011;28071;48.232;20.668;2023-08-31T07:21:04;1.13;;;0.70;;
42432;SDS011;28071;48.232;20.668;2023-08-31T07:26:04;1.08;;;0.80;;
42432;SDS011;28071;48.232;20.668;2023-08-31T07:31:06;1.83;;;0.95;;
42432;SDS011;28071;48.232;20.668;2023-08-31T07:36:07;1.85;;;1.35;;
42432;SDS011;28071;48.232;20.668;2023-08-31T07:41:07;0.82;;;0.68;;
42432;SDS011;28071;48.232;20.668;2023-08-31T07:46:08;1.42;;;1.27;;
42432;SDS011;28071;48.232;20.668;2023-08-31T07:51:08;1.05;;;0.95;;
42432;SDS011;28071;48.232;20.668;2023-08-31T07:56:08;0.95;;;0.80;;
42432;SDS011;28071;48.232;20.668;2023-08-31T08:01:09;1.08;;;0.80;;
42432;SDS011;28071;48.232;20.668;2023-08-31T08:06:09;3.13;;;1.00;;
42432;SDS011;28071;48.232;20.668;2023-08-31T08:11:10;1.00;;;0.90;;
42432;SDS011;28071;48.232;20.668;2023-08-31T08:16:10;1.42;;;0.77;;
42432;SDS011;28071;48.232;20.668;2023-08-31T08:21:10;0.98;;;0.80;;
42432;SDS011;28071;48.232;20.668;2023-08-31T08:26:11;1.20;;;0.70;;
42432;SDS011;28071;48.232;20.668;2023-08-31T08:31:11;1.30;;;0.85;;
42432;SDS011;28071;48.232;20.668;2023-08-31T08:36:12;1.30;;;0.90;;
42432;SDS011;28071;48.232;20.668;2023-08-31T08:41:13;3.67;;;0.90;;
42432;SDS011;28071;48.232;20.668;2023-08-31T08:46:14;1.60;;;1.15;;
42432;SDS011;28071;48.232;20.668;2023-08-31T08:51:14;0.88;;;0.80;;
42432;SDS011;28071;48.232;20.668;2023-08-31T08:56:15;1.60;;;0.88;;
42432;SDS011;28071;48.232;20.668;2023-08-31T09:01:16;1.02;;;0.80;;
42432;SDS011;28071;48.232;20.668;2023-08-31T09:06:17;1.65;;;0.93;;
42432;SDS011;28071;48.232;20.668;2023-08-31T09:11:21;1.48;;;0.75;;
42432;SDS011;28071;48.232;20.668;2023-08-31T09:21:35;0.88;;;0.63;;
42432;SDS011;28071;48.232;20.668;2023-08-31T09:26:37;2.08;;;1.00;;
42432;SDS011;28071;48.232;20.668;2023-08-31T09:31:42;2.70;;;1.30;;
42432;SDS011;28071;48.232;20.668;2023-08-31T09:36:44;1.38;;;0.98;;
42432;SDS011;28071;48.232;20.668;2023-08-31T09:41:54;1.33;;;1.02;;
42432;SDS011;28071;48.232;20.668;2023-08-31T09:46:55;1.83;;;0.98;;
42432;SDS011;28071;48.232;20.668;2023-08-31T09:51:57;2.40;;;1.52;;
42432;SDS011;28071;48.232;20.668;2023-08-31T09:57:03;2.05;;;1.17;;
42432;SDS011;28071;48.232;20.668;2023-08-31T10:02:04;2.08;;;0.88;;
42432;SDS011;28071;48.232;20.668;2023-08-31T10:07:06;1.75;;;1.20;;
42432;SDS011;28071;48.232;20.668;2023-08-31T10:12:09;2.38;;;1.33;;
42432;SDS011;28071;48.232;20.668;2023-08-31T10:17:10;2.17;;;1.05;;
42432;SDS011;28071;48.232;20.668;2023-08-31T10:22:11;1.10;;;0.65;;
42432;SDS011;28071;48.232;20.668;2023-08-31T10:27:18;2.28;;;1.38;;
42432;SDS011;28071;48.232;20.668;2023-08-31T10:32:19;2.58;;;1.15;;
42432;SDS011;28071;48.232;20.668;2023-08-31T10:37:20;1.80;;;0.80;;
42432;SDS011;28071;48.232;20.668;2023-08-31T10:42:23;1.58;;;0.95;;
42432;SDS011;28071;48.232;20.668;2023-08-31T10:47:36;1.58;;;1.42;;
42432;SDS011;28071;48.232;20.668;2023-08-31T10:52:42;1.55;;;1.35;;
42432;SDS011;28071;48.232;20.668;2023-08-31T10:57:45;2.08;;;1.05;;
42432;SDS011;28071;48.232;20.668;2023-08-31T11:02:46;1.30;;;0.93;;
42432;SDS011;28071;48.232;20.668;2023-08-31T11:07:47;4.10;;;1.42;;
42432;SDS011;28071;48.232;20.668;2023-08-31T11:12:53;1.08;;;0.93;;
42432;SDS011;28071;48.232;20.668;2023-08-31T11:17:54;1.50;;;1.23;;
42432;SDS011;28071;48.232;20.668;2023-08-31T11:22:55;1.27;;;1.15;;
42432;SDS011;28071;48.232;20.668;2023-08-31T11:28:00;1.92;;;1.40;;
42432;SDS011;28071;48.232;20.668;2023-08-31T11:33:07;1.83;;;1.17;;
42432;SDS011;28071;48.232;20.668;2023-08-31T11:38:09;1.75;;;0.68;;
42432;SDS011;28071;48.232;20.668;2023-08-31T11:43:09;1.23;;;1.00;;
42432;SDS011;28071;48.232;20.668;2023-08-31T11:48:11;0.95;;;0.73;;
42432;SDS011;28071;48.232;20.668;2023-08-31T11:53:12;1.23;;;0.85;;
42432;SDS011;28071;48.232;20.668;2023-08-31T11:58:12;1.25;;;0.80;;
42432;SDS011;28071;48.232;20.668;2023-08-31T12:03:12;1.13;;;0.80;;
42432;SDS011;28071;48.232;20.668;2023-08-31T12:08:16;0.80;;;0.80;;
42432;SDS011;28071;48.232;20.668;2023-08-31T12:13:25;0.75;;;0.75;;
42432;SDS011;28071;48.232;20.668;2023-08-31T12:18:30;1.83;;;1.30;;
42432;SDS011;28071;48.232;20.668;2023-08-31T12:23:34;1.88;;;1.02;;
42432;SDS011;28071;48.232;20.668;2023-08-31T12:28:34;1.15;;;0.90;;
42432;SDS011;28071;48.232;20.668;2023-08-31T12:33:35;2.35;;;1.48;;
42432;SDS011;28071;48.232;20.668;2023-08-31T12:38:35;1.40;;;0.82;;
42432;SDS011;28071;48.232;20.668;2023-08-31T12:43:36;1.35;;;0.77;;
42432;SDS011;28071;48.232;20.668;2023-08-31T12:48:36;1.85;;;1.25;;
42432;SDS011;28071;48.232;20.668;2023-08-31T12:53:37;1.55;;;1.13;;
42432;SDS011;28071;48.232;20.668;2023-08-31T12:58:39;1.65;;;1.25;;
42432;SDS011;28071;48.232;20.668;2023-08-31T13:03:39;1.45;;;1.00;;
42432;SDS011;28071;48.232;20.668;2023-08-31T13:08:40;1.20;;;0.90;;
42432;SDS011;28071;48.232;20.668;2023-08-31T13:13:41;1.17;;;0.90;;
42432;SDS011;28071;48.232;20.668;2023-08-31T13:18:41;2.03;;;1.50;;
42432;SDS011;28071;48.232;20.668;2023-08-31T13:23:41;0.80;;;0.80;;
42432;SDS011;28071;48.232;20.668;2023-08-31T13:28:44;1.58;;;0.90;;
42432;SDS011;28071;48.232;20.668;2023-08-31T13:33:44;2.40;;;1.05;;
42432;SDS011;28071;48.232;20.668;2023-08-31T13:38:45;1.67;;;1.00;;
42432;SDS011;28071;48.232;20.668;2023-08-31T13:43:45;1.30;;;0.93;;
42432;SDS011;28071;48.232;20.668;2023-08-31T13:48:45;0.30;;;0.30;;
42432;SDS011;28071;48.232;20.668;2023-08-31T13:53:48;0.85;;;0.40;;
42432;SDS011;28071;48.232;20.668;2023-08-31T13:58:48;0.10;;;0.10;;
42432;SDS011;28071;48.232;20.668;2023-08-31T14:03:49;0.35;;;0.20;;
42432;SDS011;28071;48.232;20.668;2023-08-31T14:08:49;0.30;;;0.30;;
42432;SDS011;28071;48.232;20.668;2023-08-31T14:13:49;0.60;;;0.20;;
42432;SDS011;28071;48.232;20.668;2023-08-31T14:18:50;0.28;;;0.20;;
42432;SDS011;28071;48.232;20.668;2023-08-31T14:23:50;0.30;;;0.30;;
42432;SDS011;28071;48.232;20.668;2023-08-31T14:28:55;0.30;;;0.30;;
42432;SDS011;28071;48.232;20.668;2023-08-31T14:33:57;0.40;;;0.20;;
42432;SDS011;28071;48.232;20.668;2023-08-31T14:38:58;0.40;;;0.40;;
42432;SDS011;28071;48.232;20.668;2023-08-31T14:43:58;0.40;;;0.38;;
42432;SDS011;28071;48.232;20.668;2023-08-31T14:48:59;0.20;;;0.20;;
42432;SDS011;28071;48.232;20.668;2023-08-31T14:53:59;0.32;;;0.32;;
42432;SDS011;28071;48.232;20.668;2023-08-31T14:58:59;0.35;;;0.20;;
42432;SDS011;28071;48.232;20.668;2023-08-31T15:04:00;0.40;;;0.30;;
42432;SDS011;28071;48.232;20.668;2023-08-31T15:09:00;0.35;;;0.35;;
42432;SDS011;28071;48.232;20.668;2023-08-31T15:14:01;0.55;;;0.13;;
42432;SDS011;28071;48.232;20.668;2023-08-31T15:19:01;0.30;;;0.25;;
42432;SDS011;28071;48.232;20.668;2023-08-31T15:24:02;0.15;;;0.15;;
42432;SDS011;28071;48.232;20.668;2023-08-31T15:29:03;0.30;;;0.30;;
42432;SDS011;28071;48.232;20.668;2023-08-31T15:34:04;0.30;;;0.13;;
42432;SDS011;28071;48.232;20.668;2023-08-31T15:39:04;0.40;;;0.20;;
42432;SDS011;28071;48.232;20.668;2023-08-31T15:44:05;0.85;;;0.50;;
42432;SDS011;28071;48.232;20.668;2023-08-31T15:49:05;0.60;;;0.43;;
42432;SDS011;28071;48.232;20.668;2023-08-31T15:54:06;1.05;;;0.63;;
42432;SDS011;28071;48.232;20.668;2023-08-31T15:59:06;0.50;;;0.50;;
42432;SDS011;28071;48.232;20.668;2023-08-31T16:04:07;0.57;;;0.40;;
42432;SDS011;28071;48.232;20.668;2023-08-31T16:09:07;0.77;;;0.50;;
42432;SDS011;28071;48.232;20.668;2023-08-31T16:14:08;0.95;;;0.30;;
42432;SDS011;28071;48.232;20.668;2023-08-31T16:19:08;0.93;;;0.75;;
42432;SDS011;28071;48.232;20.668;2023-08-31T16:24:11;2.47;;;1.48;;
42432;SDS011;28071;48.232;20.668;2023-08-31T16:29:11;1.33;;;0.80;;
42432;SDS011;28071;48.232;20.668;2023-08-31T16:34:12;1.35;;;0.60;;
42432;SDS011;28071;48.232;20.668;2023-08-31T16:39:12;1.13;;;0.52;;
42432;SDS011;28071;48.232;20.668;2023-08-31T16:44:13;0.73;;;0.68;;
42432;SDS011;28071;48.232;20.668;2023-08-31T16:49:13;1.17;;;0.68;;
42432;SDS011;28071;48.232;20.668;2023-08-31T16:54:14;1.15;;;0.55;;
42432;SDS011;28071;48.232;20.668;2023-08-31T16:59:15;1.40;;;0.77;;
42432;SDS011;28071;48.232;20.668;2023-08-31T17:04:16;0.70;;;0.47;;
42432;SDS011;28071;48.232;20.668;2023-08-31T17:09:16;0.60;;;0.43;;
42432;SDS011;28071;48.232;20.668;2023-08-31T17:14:17;0.77;;;0.60;;
42432;SDS011;28071;48.232;20.668;2023-08-31T17:19:19;0.55;;;0.45;;
42432;SDS011;28071;48.232;20.668;2023-08-31T17:24:20;1.25;;;0.65;;
42432;SDS011;28071;48.232;20.668;2023-08-31T17:29:20;1.77;;;1.38;;
42432;SDS011;28071;48.232;20.668;2023-08-31T17:34:21;0.80;;;0.50;;
42432;SDS011;28071;48.232;20.668;2023-08-31T17:39:22;1.35;;;0.47;;
42432;SDS011;28071;48.232;20.668;2023-08-31T17:44:23;1.05;;;0.70;;
42432;SDS011;28071;48.232;20.668;2023-08-31T17:49:25;5.60;;;1.00;;
42432;SDS011;28071;48.232;20.668;2023-08-31T17:54:25;0.47;;;0.47;;
42432;SDS011;28071;48.232;20.668;2023-08-31T17:59:26;2.20;;;0.98;;
42432;SDS011;28071;48.232;20.668;2023-08-31T18:04:27;0.68;;;0.68;;
42432;SDS011;28071;48.232;20.668;2023-08-31T18:09:28;1.45;;;0.75;;
42432;SDS011;28071;48.232;20.668;2023-08-31T18:14:32;1.52;;;0.98;;
42432;SDS011;28071;48.232;20.668;2023-08-31T18:19:34;0.98;;;0.68;;
42432;SDS011;28071;48.232;20.668;2023-08-31T18:24:35;3.08;;;0.88;;
42432;SDS011;28071;48.232;20.668;2023-08-31T18:29:37;1.20;;;0.80;;
42432;SDS011;28071;48.232;20.668;2023-08-31T18:34:38;0.77;;;0.70;;
42432;SDS011;28071;48.232;20.668;2023-08-31T18:39:39;1.83;;;1.05;;
42432;SDS011;28071;48.232;20.668;2023-08-31T18:44:39;1.75;;;0.45;;
42432;SDS011;28071;48.232;20.668;2023-08-31T18:49:40;0.88;;;0.50;;
42432;SDS011;28071;48.232;20.668;2023-08-31T18:54:40;0.32;;;0.32;;
42432;SDS011;28071;48.232;20.668;2023-08-31T18:59:41;0.88;;;0.60;;
42432;SDS011;28071;48.232;20.668;2023-08-31T19:04:41;0.95;;;0.73;;
42432;SDS011;28071;48.232;20.668;2023-08-31T19:09:41;0.95;;;0.55;;
42432;SDS011;28071;48.232;20.668;2023-08-31T19:14:42;1.52;;;0.60;;
42432;SDS011;28071;48.232;20.668;2023-08-31T19:19:43;1.23;;;0.60;;
42432;SDS011;28071;48.232;20.668;2023-08-31T19:24:43;1.40;;;0.73;;
42432;SDS011;28071;48.232;20.668;2023-08-31T19:29:44;1.25;;;0.60;;
42432;SDS011;28071;48.232;20.668;2023-08-31T19:34:44;1.55;;;0.73;;
42432;SDS011;28071;48.232;20.668;2023-08-31T19:39:44;0.82;;;0.70;;
42432;SDS011;28071;48.232;20.668;2023-08-31T19:44:45;1.50;;;0.68;;
42432;SDS011;28071;48.232;20.668;2023-08-31T19:49:47;4.55;;;0.85;;
42432;SDS011;28071;48.232;20.668;2023-08-31T19:54:51;0.43;;;0.43;;
42432;SDS011;28071;48.232;20.668;2023-08-31T19:59:52;0.68;;;0.65;;
42432;SDS011;28071;48.232;20.668;2023-08-31T20:04:52;2.20;;;0.63;;
42432;SDS011;28071;48.232;20.668;2023-08-31T20:09:55;1.15;;;0.70;;
42432;SDS011;28071;48.232;20.668;2023-08-31T20:14:55;1.42;;;0.50;;
42432;SDS011;28071;48.232;20.668;2023-08-31T20:19:56;0.90;;;0.47;;
42432;SDS011;28071;48.232;20.668;2023-08-31T20:24:56;1.05;;;0.60;;
42432;SDS011;28071;48.232;20.668;2023-08-31T20:29:57;1.20;;;0.70;;
42432;SDS011;28071;48.232;20.668;2023-08-31T20:34:57;1.73;;;0.63;;
42432;SDS011;28071;48.232;20.668;2023-08-31T20:39:57;1.60;;;0.80;;
42432;SDS011;28071;48.232;20.668;2023-08-31T20:44:58;1.42;;;0.80;;
42432;SDS011;28071;48.232;20.668;2023-08-31T20:49:59;1.08;;;0.75;;
42432;SDS011;28071;48.232;20.668;2023-08-31T20:55:00;3.63;;;1.80;;
42432;SDS011;28071;48.232;20.668;2023-08-31T21:00:01;0.77;;;0.63;;
42432;SDS011;28071;48.232;20.668;2023-08-31T21:05:05;0.50;;;0.45;;
42432;SDS011;28071;48.232;20.668;2023-08-31T21:10:05;1.90;;;0.98;;
42432;SDS011;28071;48.232;20.668;2023-08-31T21:15:06;2.00;;;0.80;;
42432;SDS011;28071;48.232;20.668;2023-08-31T21:20:07;0.50;;;0.40;;
42432;SDS011;28071;48.232;20.668;2023-08-31T21:25:08;3.03;;;0.47;;
42432;SDS011;28071;48.232;20.668;2023-08-31T21:30:09;1.92;;;1.10;;
42432;SDS011;28071;48.232;20.668;2023-08-31T21:35:09;2.47;;;1.27;;
42432;SDS011;28071;48.232;20.668;2023-08-31T21:40:10;2.10;;;1.13;;
42432;SDS011;28071;48.232;20.668;2023-08-31T21:45:10;4.70;;;2.15;;
42432;SDS011;28071;48.232;20.668;2023-08-31T21:50:11;4.03;;;2.05;;
42432;SDS011;28071;48.232;20.668;2023-08-31T21:55:13;1.45;;;1.00;;
42432;SDS011;28071;48.232;20.668;2023-08-31T22:00:14;1.05;;;0.80;;
42432;SDS011;28071;48.232;20.668;2023-08-31T22:05:16;3.15;;;1.42;;
42432;SDS011;28071;48.232;20.668;2023-08-31T22:10:17;2.67;;;1.20;;
42432;SDS011;28071;48.232;20.668;2023-08-31T22:15:18;3.88;;;2.30;;
42432;SDS011;28071;48.232;20.668;2023-08-31T22:20:23;5.35;;;3.13;;
42432;SDS011;28071;48.232;20.668;2023-08-31T22:25:26;6.07;;;3.03;;
42432;SDS011;28071;48.232;20.668;2023-08-31T22:30:27;4.78;;;3.88;;
42432;SDS011;28071;48.232;20.668;2023-08-31T22:35:28;9.38;;;4.72;;
42432;SDS011;28071;48.232;20.668;2023-08-31T22:40:28;4.10;;;2.80;;
42432;SDS011;28071;48.232;20.668;2023-08-31T22:45:28;5.22;;;3.45;;
42432;SDS011;28071;48.232;20.668;2023-08-31T22:50:30;8.60;;;4.25;;
42432;SDS011;28071;48.232;20.668;2023-08-31T22:55:30;7.40;;;3.80;;
42432;SDS011;28071;48.232;20.668;2023-08-31T23:00:31;8.57;;;4.38;;
42432;SDS011;28071;48.232;20.668;2023-08-31T23:05:31;8.25;;;5.40;;
42432;SDS011;28071;48.232;20.668;2023-08-31T23:10:32;10.45;;;5.65;;
42432;SDS011;28071;48.232;20.668;2023-08-31T23:15:32;15.82;;;5.80;;
42432;SDS011;28071;48.232;20.668;2023-08-31T23:20:33;10.85;;;4.93;;
42432;SDS011;28071;48.232;20.668;2023-08-31T23:25:33;9.65;;;4.25;;
42432;SDS011;28071;48.232;20.668;2023-08-31T23:30:33;8.35;;;4.75;;
42432;SDS011;28071;48.232;20.668;2023-08-31T23:35:34;10.50;;;4.80;;
42432;SDS011;28071;48.232;20.668;2023-08-31T23:40:35;10.10;;;5.03;;
42432;SDS011;28071;48.232;20.668;2023-08-31T23:45:35;6.07;;;3.33;;
42432;SDS011;28071;48.232;20.668;2023-08-31T23:50:36;5.32;;;2.08;;
42432;SDS011;28071;48.232;20.668;2023-08-31T23:55:40;6.45;;;2.10;;
